Flight Track Log - Related Links

Times and Time Zones

All times are in EDT time to prevent confusion due to time zone crossing. See the KAL1331 flight status page for this flight to view local times or setup timezone preferences in your user account.

Time Position Orientation Groundspeed Altitude Reporting Facility
EDT Latitude Longitude Course Direction KTS MPH feet Rate Location/Type
Sun 06:25:00 PM 37.3567 126.8538 166° South  Level Estimated
Sun 06:26:00 PM 37.2559 126.8853 166° South  Level Estimated
Sun 06:27:00 PM 37.1551 126.9167 166° South  Level Estimated
Sun 06:28:00 PM 37.0542 126.9481 166° South  Level Estimated
Sun 06:29:00 PM 36.9534 126.9793 166° South  Level Estimated
Sun 06:30:00 PM 36.8525 127.0105 166° South  Level Estimated
Sun 06:31:00 PM 36.7517 127.0415 166° South  Level Estimated
Sun 06:32:00 PM 36.6508 127.0725 166° South  Level Estimated
Sun 06:33:00 PM 36.5499 127.1034 166° South  Level Estimated
Sun 06:34:00 PM 36.4491 127.1343 166° South  Level Estimated
Sun 06:35:00 PM 36.3482 127.1650 166° South  Level Estimated
Sun 06:36:00 PM 36.2473 127.1957 166° South  Level Estimated
Sun 06:37:00 PM 36.1464 127.2263 166° South  Level Estimated
Sun 06:38:00 PM 36.0455 127.2568 166° South  Level Estimated
Sun 06:39:00 PM 35.9445 127.2872 166° South  Level Estimated
Sun 06:40:00 PM 35.8436 127.3176 166° South  Level Estimated
Sun 06:41:00 PM 35.7427 127.3479 166° South  Level Estimated
Sun 06:42:00 PM 35.6417 127.3781 166° South  Level Estimated
Sun 06:43:00 PM 35.5408 127.4082 166° South  Level Estimated
Sun 06:44:00 PM 35.4398 127.4383 166° South  Level Estimated
Sun 06:45:00 PM 35.3389 127.4683 166° South  Level Estimated
Sun 06:46:00 PM 35.2379 127.4982 166° South  Level Estimated
Sun 06:47:00 PM 35.1369 127.5280 166° South  Level Estimated
Sun 06:48:00 PM 35.0359 127.5578 166° South  Level Estimated
Sun 06:49:00 PM 34.9349 127.5874 166° South  Level Estimated
Sun 06:50:00 PM 34.8398 127.6153 166° South  Level Estimated
Sun 06:51:00 PM 34.8398 127.6153 180° South  Level Estimated
Sun 06:52:00 PM 34.8398 127.6153 180° South  Level Estimated
Sun 06:53:00 PM 34.8398 127.6153 180° South  Level Estimated
Sun 06:54:00 PM 34.8398 127.6153 180° South  Level Estimated
Sun 06:55:00 PM 34.8398 127.6153 180° South  Level Estimated
Sun 06:56:00 PM 34.8398 127.6153 180° South  Level Estimated
Sun 06:57:00 PM 34.8398 127.6153 180° South  Level Estimated
Sun 06:58:00 PM 34.8398 127.6153 180° South  Level Estimated
Sun 06:59:00 PM 34.8398 127.6153 180° South  Level Estimated
Sun 07:00:00 PM 34.8398 127.6153 180° South  Level Estimated
Sun 07:01:00 PM 34.8398 127.6153 180° South  Level Estimated
Sun 07:02:00 PM 34.8398 127.6153 180° South  Level Estimated
Sun 07:03:00 PM 34.8398 127.6153 180° South  Level Estimated
Sun 07:04:00 PM 34.8398 127.6153 180° South  Level Estimated
Sun 07:05:00 PM 34.8398 127.6153 180° South  Level Estimated
Sun 07:06:00 PM 34.8398 127.6153 180° South  Level Estimated

Login

Don't have an account? Register now (free) for customized features, flight alerts, and more!